createdAt,value
2018-04-07T00:00:40.225Z,3.40
2018-04-07T00:03:11.694Z,3.50
2018-04-07T00:05:40.821Z,3.40
2018-04-07T00:08:09.075Z,3.40
2018-04-07T00:10:37.272Z,3.30
2018-04-07T00:13:05.424Z,3.40
2018-04-07T00:15:33.678Z,3.30
2018-04-07T00:18:03.554Z,3.30
2018-04-07T00:20:31.804Z,3.30
2018-04-07T00:23:02.061Z,3.30
2018-04-07T00:25:31.166Z,3.20
2018-04-07T00:27:59.565Z,3.20
2018-04-07T00:30:27.746Z,3.10
2018-04-07T00:32:55.977Z,2.90
2018-04-07T00:35:25.278Z,2.90
2018-04-07T00:37:53.458Z,2.80
2018-04-07T00:40:21.711Z,2.80
2018-04-07T00:42:50.286Z,2.90
2018-04-07T00:45:18.755Z,3.00
2018-04-07T00:47:46.927Z,3.00
2018-04-07T00:50:15.076Z,3.10
2018-04-07T00:52:55.317Z,3.10
2018-04-07T00:55:24.844Z,3.00
2018-04-07T00:57:54.169Z,3.00
2018-04-07T01:00:22.345Z,3.00
2018-04-07T01:02:50.621Z,2.80
2018-04-07T01:05:18.781Z,2.70
2018-04-07T01:07:46.967Z,2.60
2018-04-07T01:10:15.142Z,2.70
2018-04-07T01:12:44.049Z,2.70
2018-04-07T01:15:12.207Z,2.60
2018-04-07T01:17:40.596Z,2.70
2018-04-07T01:20:09.007Z,2.80
2018-04-07T01:22:38.972Z,2.70
2018-04-07T01:25:07.740Z,2.60
2018-04-07T01:27:36.137Z,2.70
2018-04-07T01:30:04.331Z,2.70
2018-04-07T01:32:32.639Z,2.70
2018-04-07T01:35:00.810Z,2.60
2018-04-07T01:37:29.014Z,2.60
2018-04-07T01:39:57.540Z,2.50
2018-04-07T01:42:27.819Z,2.50
2018-04-07T01:44:56.045Z,2.50
2018-04-07T01:47:24.240Z,2.50
2018-04-07T01:49:52.692Z,2.60
2018-04-07T01:52:23.227Z,2.50
2018-04-07T01:54:51.570Z,2.40
2018-04-07T01:57:20.198Z,2.30
2018-04-07T01:59:48.345Z,2.30
2018-04-07T02:02:16.618Z,2.20
2018-04-07T02:04:44.829Z,2.20
2018-04-07T02:07:13.218Z,2.20
2018-04-07T02:09:41.379Z,2.10
2018-04-07T02:12:13.050Z,2.00
2018-04-07T02:14:45.841Z,2.00
2018-04-07T02:17:16.029Z,2.00
2018-04-07T02:19:44.198Z,2.10
2018-04-07T02:22:14.532Z,2.10
2018-04-07T02:24:42.692Z,2.20
2018-04-07T02:27:10.854Z,2.20
2018-04-07T02:29:39.028Z,2.10
2018-04-07T02:32:08.474Z,2.00
2018-04-07T02:34:36.686Z,1.80
2018-04-07T02:37:04.863Z,1.80
2018-04-07T02:39:33.035Z,1.80
2018-04-07T02:42:02.245Z,1.90
2018-04-07T02:44:30.413Z,2.00
2018-04-07T02:46:58.569Z,1.90
2018-04-07T02:49:27.501Z,1.80
2018-04-07T02:51:56.683Z,1.80
2018-04-07T02:54:25.612Z,1.70
2018-04-07T02:56:53.770Z,1.70
2018-04-07T02:59:22.168Z,1.70
2018-04-07T03:01:51.399Z,1.80
2018-04-07T03:04:19.567Z,1.70
2018-04-07T03:06:49.435Z,1.70
2018-04-07T03:09:17.598Z,1.60
2018-04-07T03:11:46.425Z,1.70
2018-04-07T03:14:14.585Z,1.80
2018-04-07T03:16:42.772Z,1.80
2018-04-07T03:19:11.110Z,1.80
2018-04-07T03:21:40.539Z,1.90
2018-04-07T03:24:12.118Z,1.80
2018-04-07T03:26:40.308Z,1.80
2018-04-07T03:29:08.482Z,1.60
2018-04-07T03:31:38.846Z,1.50
2018-04-07T03:34:07.628Z,1.50
2018-04-07T03:36:36.467Z,1.50
2018-04-07T03:39:05.067Z,1.50
2018-04-07T03:41:34.314Z,1.50
2018-04-07T03:44:02.679Z,1.60
2018-04-07T03:46:30.820Z,1.60
2018-04-07T03:48:59.020Z,1.60
2018-04-07T03:51:29.277Z,1.40
2018-04-07T03:53:57.509Z,1.30
2018-04-07T03:56:25.668Z,1.20
2018-04-07T03:58:54.599Z,1.00
2018-04-07T04:01:23.797Z,1.00
2018-04-07T04:03:51.994Z,1.00
2018-04-07T04:06:21.038Z,1.20
2018-04-07T04:08:49.976Z,1.20
2018-04-07T04:11:20.649Z,1.20
2018-04-07T04:13:50.321Z,1.30
2018-04-07T04:16:18.522Z,1.30
2018-04-07T04:18:46.681Z,1.20
2018-04-07T04:21:14.872Z,1.20
2018-04-07T04:23:43.404Z,1.20
2018-04-07T04:26:11.579Z,1.20
2018-04-07T04:28:42.108Z,1.30
2018-04-07T04:31:10.279Z,1.20
2018-04-07T04:33:38.455Z,1.20
2018-04-07T04:36:06.718Z,1.30
2018-04-07T04:38:35.373Z,1.40
2018-04-07T04:41:04.350Z,1.30
2018-04-07T04:43:33.490Z,1.30
2018-04-07T04:46:01.658Z,1.30
2018-04-07T04:48:29.833Z,1.20
2018-04-07T04:50:58.012Z,1.10
2018-04-07T04:53:27.492Z,1.10
2018-04-07T04:55:55.709Z,1.00
2018-04-07T04:58:23.877Z,1.00
2018-04-07T05:00:52.890Z,1.10
2018-04-07T05:03:21.143Z,1.10
2018-04-07T05:05:50.025Z,1.10
2018-04-07T05:08:18.198Z,1.00
2018-04-07T05:10:47.177Z,1.00
2018-04-07T05:13:16.535Z,1.00
2018-04-07T05:15:45.486Z,1.10
2018-04-07T05:18:13.782Z,1.10
2018-04-07T05:20:42.232Z,1.20
2018-04-07T05:23:10.573Z,1.40
2018-04-07T05:25:38.765Z,1.50
2018-04-07T05:28:07.337Z,1.60
2018-04-07T05:30:35.521Z,1.60
2018-04-07T05:33:03.798Z,1.60
2018-04-07T05:35:32.001Z,1.60
2018-04-07T05:38:01.027Z,1.60
2018-04-07T05:40:32.383Z,1.70
2018-04-07T05:43:00.912Z,1.80
2018-04-07T05:45:29.446Z,1.80
2018-04-07T05:47:57.788Z,1.90
2018-04-07T05:50:25.958Z,2.00
2018-04-07T05:52:54.270Z,2.00
2018-04-07T05:55:22.560Z,2.10
2018-04-07T05:57:50.733Z,2.20
2018-04-07T06:00:19.410Z,2.30
2018-04-07T06:02:47.579Z,2.40
2018-04-07T06:05:16.449Z,2.60
2018-04-07T06:07:44.609Z,2.70
2018-04-07T06:10:12.789Z,2.80
2018-04-07T06:12:41.425Z,2.90
2018-04-07T06:15:09.998Z,3.10
2018-04-07T06:17:38.171Z,3.30
2018-04-07T06:20:06.367Z,3.30
2018-04-07T06:22:34.997Z,3.40
2018-04-07T06:25:03.883Z,3.40
2018-04-07T06:27:32.963Z,3.60
2018-04-07T06:30:05.197Z,3.70
2018-04-07T06:32:33.483Z,3.80
2018-04-07T06:35:01.661Z,3.90
2018-04-07T06:37:29.835Z,4.00
2018-04-07T06:39:58.028Z,4.10
2018-04-07T06:42:27.035Z,4.50
2018-04-07T06:44:55.225Z,4.40
2018-04-07T06:47:23.662Z,4.60
2018-04-07T06:49:53.546Z,4.70
2018-04-07T06:52:22.148Z,4.80
2018-04-07T06:54:50.540Z,5.00
2018-04-07T06:57:18.707Z,5.10
2018-04-07T06:59:46.869Z,5.30
2018-04-07T07:02:17.565Z,5.60
2018-04-07T07:04:45.747Z,5.60
2018-04-07T07:07:13.914Z,5.80
2018-04-07T07:09:42.077Z,5.90
2018-04-07T07:12:11.663Z,6.00
2018-04-07T07:14:41.520Z,6.30
2018-04-07T07:17:09.737Z,6.50
2018-04-07T07:19:38.825Z,6.70
2018-04-07T07:22:07.121Z,6.90
2018-04-07T07:24:35.284Z,7.10
2018-04-07T07:27:03.446Z,7.50
2018-04-07T07:29:31.663Z,7.60
2018-04-07T07:31:59.863Z,8.00
2018-04-07T07:34:28.260Z,8.50
2018-04-07T07:36:57.313Z,8.60
2018-04-07T07:39:25.506Z,8.70
2018-04-07T07:41:53.820Z,8.90
2018-04-07T07:44:21.966Z,9.00
2018-04-07T07:46:51.935Z,9.30
2018-04-07T07:49:20.111Z,9.40
2018-04-07T07:51:52.198Z,9.60
2018-04-07T07:54:20.477Z,9.60
2018-04-07T07:56:48.673Z,9.80
2018-04-07T07:59:16.838Z,9.90
2018-04-07T08:01:45.095Z,9.90
2018-04-07T08:04:13.257Z,10.00
2018-04-07T08:06:43.914Z,10.10
2018-04-07T08:09:13.323Z,10.10
2018-04-07T08:11:47.293Z,10.30
2018-04-07T08:14:17.330Z,10.40
2018-04-07T08:16:46.598Z,10.40
2018-04-07T08:19:14.861Z,10.50
2018-04-07T08:21:43.131Z,10.80
2018-04-07T08:24:11.311Z,10.90
2018-04-07T08:26:39.493Z,11.00
2018-04-07T08:29:07.731Z,11.20
2018-04-07T08:31:55.372Z,11.30
2018-04-07T08:34:23.537Z,11.40
2018-04-07T08:36:52.169Z,11.50
2018-04-07T08:39:20.330Z,11.70
2018-04-07T08:41:52.347Z,11.80
2018-04-07T08:44:22.465Z,12.00
2018-04-07T08:46:51.493Z,12.10
2018-04-07T08:49:19.657Z,12.20
2018-04-07T08:51:47.928Z,12.40
2018-04-07T08:54:16.122Z,12.50
2018-04-07T08:56:44.281Z,12.80
2018-04-07T08:59:12.458Z,13.10
2018-04-07T09:01:40.647Z,13.10
2018-04-07T09:04:08.804Z,13.20
2018-04-07T09:06:39.513Z,13.30
2018-04-07T09:09:07.674Z,13.50
2018-04-07T09:11:35.986Z,13.70
2018-04-07T09:14:04.163Z,13.80
2018-04-07T09:16:32.841Z,13.80
2018-04-07T09:19:01.023Z,13.80
2018-04-07T09:21:29.283Z,14.00
2018-04-07T09:23:57.439Z,14.10
2018-04-07T09:26:26.429Z,14.20
2018-04-07T09:28:54.663Z,14.20
2018-04-07T09:31:25.633Z,14.50
2018-04-07T09:33:53.799Z,14.50
2018-04-07T09:36:22.777Z,14.80
2018-04-07T09:38:51.535Z,14.80
2018-04-07T09:41:22.251Z,14.80
2018-04-07T09:43:50.468Z,14.90
2018-04-07T09:46:19.558Z,15.00
2018-04-07T09:48:48.222Z,15.10
2018-04-07T09:54:12.545Z,15.30
2018-04-07T09:56:40.709Z,15.40
2018-04-07T09:59:10.442Z,15.60
2018-04-07T10:01:38.861Z,15.60
2018-04-07T10:04:07.872Z,15.70
2018-04-07T10:06:36.757Z,15.70
2018-04-07T10:09:08.937Z,15.90
2018-04-07T10:11:41.754Z,16.00
2018-04-07T10:14:09.937Z,16.10
2018-04-07T10:16:38.120Z,16.30
2018-04-07T10:19:07.388Z,16.60
2018-04-07T10:21:40.466Z,16.60
2018-04-07T10:24:14.062Z,16.70
2018-04-07T10:26:42.237Z,16.70
2018-04-07T10:29:12.258Z,16.70
2018-04-07T10:31:42.013Z,16.80
2018-04-07T10:34:15.757Z,16.90
2018-04-07T10:39:28.068Z,17.30
2018-04-07T10:42:01.523Z,17.40
2018-04-07T10:44:32.349Z,17.50
2018-04-07T10:47:08.193Z,17.60
2018-04-07T10:49:45.266Z,17.80
2018-04-07T10:52:20.534Z,18.00
2018-04-07T10:54:52.574Z,18.10
2018-04-07T10:57:26.564Z,18.00
2018-04-07T10:59:58.595Z,18.10
2018-04-07T11:02:34.493Z,18.20
2018-04-07T11:05:12.510Z,18.30
2018-04-07T11:07:46.292Z,18.60
2018-04-07T11:10:21.646Z,18.60
2018-04-07T11:13:03.946Z,18.90
2018-04-07T11:15:42.245Z,19.10
2018-04-07T11:20:59.647Z,19.20
2018-04-07T11:26:25.101Z,19.50
2018-04-07T11:31:43.426Z,19.50
2018-04-07T11:34:20.945Z,19.70
2018-04-07T11:36:55.097Z,19.70
2018-04-07T11:39:27.830Z,19.80
2018-04-07T11:42:02.360Z,19.90
2018-04-07T11:47:06.787Z,19.60
2018-04-07T11:52:32.317Z,19.70
2018-04-07T11:55:03.897Z,19.80
2018-04-07T11:57:33.684Z,19.90
2018-04-07T12:00:04.332Z,20.10
2018-04-07T12:02:35.395Z,20.00
2018-04-07T12:05:07.553Z,20.00
2018-04-07T12:07:38.570Z,20.20
2018-04-07T12:10:08.119Z,20.20
2018-04-07T12:12:38.012Z,20.30
2018-04-07T12:15:06.946Z,20.70
2018-04-07T12:17:35.942Z,20.60
2018-04-07T12:20:05.963Z,20.90
2018-04-07T12:22:42.969Z,21.00
2018-04-07T12:30:51.135Z,20.70
2018-04-07T12:39:11.867Z,20.90
2018-04-07T12:44:20.314Z,21.00
2018-04-07T12:46:54.345Z,21.20
2018-04-07T12:49:25.551Z,21.40
2018-04-07T12:52:02.705Z,21.60
2018-04-07T12:54:34.359Z,21.60
2018-04-07T12:57:07.834Z,21.70
2018-04-07T12:59:40.284Z,21.90
2018-04-07T13:02:15.986Z,22.00
2018-04-07T13:37:58.487Z,23.50
2018-04-07T13:40:27.832Z,23.50
2018-04-07T13:42:56.793Z,23.20
2018-04-07T13:45:25.752Z,23.60
2018-04-07T13:47:55.236Z,24.70
2018-04-07T13:50:25.934Z,27.40
2018-04-07T13:52:57.160Z,27.40
2018-04-07T13:55:26.369Z,28.90
2018-04-07T13:57:55.219Z,30.20
2018-04-07T14:00:24.894Z,30.90
2018-04-07T14:02:54.189Z,31.60
2018-04-07T14:05:22.523Z,32.20
2018-04-07T14:07:50.907Z,32.80
2018-04-07T14:10:19.954Z,33.00
2018-04-07T14:12:54.677Z,33.40
2018-04-07T14:15:23.474Z,34.10
2018-04-07T14:17:56.518Z,34.90
2018-04-07T14:20:26.496Z,34.90
2018-04-07T14:22:56.859Z,34.90
2018-04-07T14:25:26.099Z,34.30
2018-04-07T14:27:54.338Z,34.30
2018-04-07T14:30:22.976Z,34.90
2018-04-07T14:32:53.566Z,35.20
2018-04-07T14:35:22.090Z,35.70
2018-04-07T14:37:53.581Z,34.80
2018-04-07T14:40:21.773Z,34.20
2018-04-07T14:42:50.760Z,33.60
2018-04-07T14:45:20.743Z,33.50
2018-04-07T14:47:49.683Z,34.00
2018-04-07T14:50:19.550Z,34.00
2018-04-07T14:52:51.245Z,34.40
2018-04-07T14:55:19.931Z,34.80
2018-04-07T14:57:48.176Z,35.00
2018-04-07T15:00:18.169Z,34.90
2018-04-07T15:02:47.193Z,34.50
2018-04-07T15:05:15.344Z,34.50
2018-04-07T15:07:44.262Z,35.90
2018-04-07T15:10:12.842Z,35.90
2018-04-07T15:12:41.958Z,36.00
2018-04-07T15:15:11.336Z,36.00
2018-04-07T15:17:41.875Z,35.90
2018-04-07T15:20:10.070Z,35.80
2018-04-07T15:22:39.830Z,36.30
2018-04-07T15:25:09.179Z,36.50
2018-04-07T15:27:38.878Z,36.70
2018-04-07T15:30:07.048Z,36.60
2018-04-07T15:32:35.333Z,36.90
2018-04-07T15:35:04.438Z,37.40
2018-04-07T15:37:32.685Z,37.80
2018-04-07T15:40:01.756Z,37.30
2018-04-07T15:42:35.451Z,37.00
2018-04-07T15:45:04.489Z,37.00
2018-04-07T15:47:32.809Z,35.70
2018-04-07T15:50:01.887Z,34.00
2018-04-07T15:52:30.544Z,32.20
2018-04-07T15:55:00.949Z,30.90
2018-04-07T15:57:30.920Z,29.70
2018-04-07T15:59:59.701Z,28.50
2018-04-07T16:02:29.800Z,27.60
2018-04-07T16:04:59.214Z,26.80
2018-04-07T16:07:27.397Z,26.20
2018-04-07T16:09:56.266Z,25.60
2018-04-07T16:12:29.249Z,25.20
2018-04-07T16:14:58.468Z,24.80
2018-04-07T16:17:30.029Z,24.50
2018-04-07T16:20:00.859Z,24.30
2018-04-07T16:22:33.343Z,24.00
2018-04-07T16:25:01.552Z,23.70
2018-04-07T16:27:34.695Z,23.60
2018-04-07T16:30:09.590Z,23.50
2018-04-07T16:32:43.374Z,23.30
2018-04-07T16:35:19.546Z,23.20
2018-04-07T16:37:50.472Z,23.10
2018-04-07T16:40:23.175Z,23.00
2018-04-07T16:43:03.773Z,22.90
2018-04-07T16:48:12.794Z,22.80
2018-04-07T16:50:45.881Z,22.50
2018-04-07T16:53:20.455Z,22.40
2018-04-07T16:55:50.185Z,22.40
2018-04-07T16:58:24.863Z,22.40
2018-04-07T17:01:05.752Z,22.20
2018-04-07T17:06:11.977Z,22.00
2018-04-07T17:08:41.800Z,22.00
2018-04-07T17:11:19.335Z,21.80
2018-04-07T17:13:47.564Z,21.80
2018-04-07T17:16:23.520Z,21.70
2018-04-07T17:18:55.913Z,21.60
2018-04-07T17:21:31.187Z,21.40
2018-04-07T17:24:13.050Z,21.40
2018-04-07T17:52:30.028Z,20.00
2018-04-07T17:54:59.610Z,19.90
2018-04-07T17:57:32.152Z,19.80
2018-04-07T18:10:43.181Z,19.10
2018-04-07T18:16:02.223Z,18.90
2018-04-07T18:18:31.816Z,18.50
2018-04-07T18:21:01.259Z,18.50
2018-04-07T18:23:37.457Z,18.40
2018-04-07T18:28:49.961Z,18.00
2018-04-07T18:31:24.130Z,17.90
2018-04-07T18:33:57.948Z,17.80
2018-04-07T18:44:44.644Z,16.90
2018-04-07T18:52:40.038Z,15.80
2018-04-07T19:00:35.770Z,15.20
2018-04-07T19:05:57.291Z,14.90
2018-04-07T19:08:35.072Z,14.80
2018-04-07T19:11:08.541Z,14.70
2018-04-07T19:13:46.545Z,14.60
2018-04-07T19:19:05.942Z,14.20
2018-04-07T19:21:41.481Z,13.90
2018-04-07T19:24:11.359Z,13.70
2018-04-07T19:26:40.538Z,13.60
2018-04-07T19:29:15.110Z,13.60
2018-04-07T19:31:50.863Z,13.70
2018-04-07T19:34:22.003Z,13.30
2018-04-07T19:36:50.230Z,13.30
2018-04-07T19:39:19.641Z,13.20
2018-04-07T19:41:52.246Z,13.00
2018-04-07T19:44:29.093Z,12.90
2018-04-07T19:47:05.147Z,12.90
2018-04-07T19:52:34.073Z,12.60
2018-04-07T19:55:03.950Z,12.60
2018-04-07T19:57:35.044Z,12.60
2018-04-07T20:00:05.198Z,12.50
2018-04-07T20:02:44.429Z,12.50
2018-04-07T20:05:15.197Z,12.50
2018-04-07T20:07:47.140Z,12.50
2018-04-07T20:10:19.800Z,12.40
2018-04-07T20:12:55.330Z,12.40
2018-04-07T20:15:34.400Z,12.40
2018-04-07T20:18:08.373Z,12.30
2018-04-07T20:20:37.899Z,12.20
2018-04-07T20:23:11.070Z,11.90
2018-04-07T20:25:40.573Z,11.90
2018-04-07T20:28:10.641Z,11.80
2018-04-07T20:30:39.515Z,11.70
2018-04-07T20:33:12.998Z,11.50
2018-04-07T20:35:42.072Z,11.50
2018-04-07T20:41:00.291Z,11.30
2018-04-07T20:43:29.829Z,11.00
2018-04-07T20:45:58.897Z,11.10
2018-04-07T20:48:27.641Z,11.10
2018-04-07T20:50:57.670Z,11.00
2018-04-07T20:53:26.758Z,10.90
2018-04-07T20:55:55.849Z,10.90
2018-04-07T20:58:24.734Z,10.90
2018-04-07T21:03:56.604Z,10.50
2018-04-07T21:06:33.203Z,10.30
2018-04-07T21:09:04.375Z,10.10
2018-04-07T21:11:37.467Z,10.00
2018-04-07T21:14:15.378Z,9.90
2018-04-07T21:16:45.195Z,10.00
2018-04-07T21:19:19.517Z,10.10
2018-04-07T21:21:48.982Z,10.00
2018-04-07T21:24:19.001Z,10.00
2018-04-07T21:26:48.105Z,9.90
2018-04-07T21:29:18.707Z,9.90
2018-04-07T21:31:50.199Z,9.90
2018-04-07T21:34:19.813Z,9.80
2018-04-07T21:36:56.478Z,9.80
2018-04-07T21:39:26.251Z,9.90
2018-04-07T21:41:54.778Z,9.90
2018-04-07T21:44:29.670Z,9.70
2018-04-07T21:46:59.063Z,9.60
2018-04-07T21:49:28.061Z,9.40
2018-04-07T21:51:57.419Z,9.40
2018-04-07T21:54:50.968Z,9.30
2018-04-07T21:57:22.364Z,9.30
2018-04-07T21:59:51.898Z,9.30
2018-04-07T22:02:23.883Z,9.30
2018-04-07T22:04:54.650Z,9.20
2018-04-07T22:07:25.557Z,9.20
2018-04-07T22:09:54.666Z,9.20
2018-04-07T22:12:24.198Z,9.20
2018-04-07T22:14:54.149Z,9.10
2018-04-07T22:17:24.021Z,9.10
2018-04-07T22:19:54.328Z,9.10
2018-04-07T22:22:26.156Z,9.00
2018-04-07T22:24:55.153Z,9.00
2018-04-07T22:27:24.343Z,8.80
2018-04-07T22:29:54.024Z,8.70
2018-04-07T22:34:57.554Z,8.70
2018-04-07T22:37:31.222Z,8.60
2018-04-07T22:40:00.349Z,8.50
2018-04-07T22:42:30.219Z,8.40
2018-04-07T22:45:01.125Z,8.40
2018-04-07T22:47:30.827Z,8.40
2018-04-07T22:50:00.054Z,8.40
2018-04-07T22:52:28.359Z,8.30
2018-04-07T22:54:58.033Z,8.30
2018-04-07T22:57:29.830Z,8.30
2018-04-07T22:59:59.224Z,8.30
2018-04-07T23:02:29.352Z,8.40
2018-04-07T23:04:59.271Z,8.40
2018-04-07T23:07:27.490Z,8.20
2018-04-07T23:09:56.880Z,8.20
2018-04-07T23:12:29.776Z,8.10
2018-04-07T23:15:02.479Z,8.10
2018-04-07T23:17:31.727Z,8.10
2018-04-07T23:20:02.530Z,8.00
2018-04-07T23:22:33.768Z,8.00
2018-04-07T23:25:01.979Z,8.00
2018-04-07T23:27:30.150Z,8.00
2018-04-07T23:29:59.172Z,7.90
2018-04-07T23:32:34.886Z,7.90
2018-04-07T23:35:05.820Z,7.70
2018-04-07T23:37:34.556Z,7.70
2018-04-07T23:40:02.766Z,7.60
2018-04-07T23:42:33.503Z,7.70
2018-04-07T23:45:05.625Z,7.80
2018-04-07T23:47:34.140Z,7.70
2018-04-07T23:50:04.257Z,7.60
2018-04-07T23:52:36.311Z,7.60
2018-04-07T23:55:05.575Z,7.40
2018-04-07T23:57:34.818Z,7.30
